sensor_id;sensor_type;location;lat;lon;timestamp;temperature;humidity
1936;DHT22;969;49.892;10.896;2023-07-16T00:01:57;27.70;48.90
1936;DHT22;969;49.892;10.896;2023-07-16T00:04:22;27.70;48.90
1936;DHT22;969;49.892;10.896;2023-07-16T00:06:48;27.70;48.90
1936;DHT22;969;49.892;10.896;2023-07-16T00:09:14;27.70;48.90
1936;DHT22;969;49.892;10.896;2023-07-16T00:11:40;27.70;49.50
1936;DHT22;969;49.892;10.896;2023-07-16T00:14:05;27.70;48.90
1936;DHT22;969;49.892;10.896;2023-07-16T00:16:31;27.70;48.90
1936;DHT22;969;49.892;10.896;2023-07-16T00:18:57;27.70;48.90
1936;DHT22;969;49.892;10.896;2023-07-16T00:21:23;27.70;49.00
1936;DHT22;969;49.892;10.896;2023-07-16T00:23:49;27.70;48.90
1936;DHT22;969;49.892;10.896;2023-07-16T00:26:14;27.70;48.90
1936;DHT22;969;49.892;10.896;2023-07-16T00:28:40;27.70;48.90
1936;DHT22;969;49.892;10.896;2023-07-16T00:31:05;27.80;49.00
1936;DHT22;969;49.892;10.896;2023-07-16T00:33:31;27.70;48.90
1936;DHT22;969;49.892;10.896;2023-07-16T00:35:56;27.80;49.00
1936;DHT22;969;49.892;10.896;2023-07-16T00:38:22;27.70;48.90
1936;DHT22;969;49.892;10.896;2023-07-16T00:40:48;27.70;48.90
1936;DHT22;969;49.892;10.896;2023-07-16T00:43:14;27.80;49.00
1936;DHT22;969;49.892;10.896;2023-07-16T00:45:40;27.80;49.00
1936;DHT22;969;49.892;10.896;2023-07-16T00:48:07;27.70;48.90
1936;DHT22;969;49.892;10.896;2023-07-16T00:50:34;27.80;49.00
1936;DHT22;969;49.892;10.896;2023-07-16T00:53:08;27.70;48.90
1936;DHT22;969;49.892;10.896;2023-07-16T00:55:35;27.80;49.00
1936;DHT22;969;49.892;10.896;2023-07-16T00:58:05;27.70;48.90
1936;DHT22;969;49.892;10.896;2023-07-16T01:00:36;27.80;49.00
1936;DHT22;969;49.892;10.896;2023-07-16T01:03:03;27.80;49.00
1936;DHT22;969;49.892;10.896;2023-07-16T01:05:36;27.80;49.00
1936;DHT22;969;49.892;10.896;2023-07-16T01:08:08;27.80;49.00
1936;DHT22;969;49.892;10.896;2023-07-16T01:10:36;27.80;49.00
1936;DHT22;969;49.892;10.896;2023-07-16T01:13:03;27.80;49.10
1936;DHT22;969;49.892;10.896;2023-07-16T01:15:28;27.80;49.10
1936;DHT22;969;49.892;10.896;2023-07-16T01:17:54;27.70;49.00
1936;DHT22;969;49.892;10.896;2023-07-16T01:20:19;27.70;49.00
1936;DHT22;969;49.892;10.896;2023-07-16T01:23:26;27.80;49.00
1936;DHT22;969;49.892;10.896;2023-07-16T01:28:44;27.70;49.00
1936;DHT22;969;49.892;10.896;2023-07-16T01:31:15;27.70;49.00
1936;DHT22;969;49.892;10.896;2023-07-16T01:33:42;27.70;49.00
1936;DHT22;969;49.892;10.896;2023-07-16T01:36:08;27.70;49.00
1936;DHT22;969;49.892;10.896;2023-07-16T01:38:35;27.70;49.00
1936;DHT22;969;49.892;10.896;2023-07-16T01:41:01;27.70;49.00
1936;DHT22;969;49.892;10.896;2023-07-16T01:43:27;27.70;49.00
1936;DHT22;969;49.892;10.896;2023-07-16T01:45:52;27.80;49.10
1936;DHT22;969;49.892;10.896;2023-07-16T01:48:35;27.70;49.00
1936;DHT22;969;49.892;10.896;2023-07-16T01:51:03;27.70;49.60
1936;DHT22;969;49.892;10.896;2023-07-16T01:53:28;27.80;49.10
1936;DHT22;969;49.892;10.896;2023-07-16T01:55:54;27.70;49.00
1936;DHT22;969;49.892;10.896;2023-07-16T01:58:20;27.70;49.00
1936;DHT22;969;49.892;10.896;2023-07-16T02:00:45;27.80;49.10
1936;DHT22;969;49.892;10.896;2023-07-16T02:03:11;27.70;49.00
1936;DHT22;969;49.892;10.896;2023-07-16T02:05:37;27.70;49.10
1936;DHT22;969;49.892;10.896;2023-07-16T02:08:02;27.80;49.10
1936;DHT22;969;49.892;10.896;2023-07-16T02:10:28;27.70;49.00
1936;DHT22;969;49.892;10.896;2023-07-16T02:12:54;27.70;49.00
1936;DHT22;969;49.892;10.896;2023-07-16T02:15:19;27.70;49.00
1936;DHT22;969;49.892;10.896;2023-07-16T02:17:45;27.80;49.10
1936;DHT22;969;49.892;10.896;2023-07-16T02:20:11;27.70;49.10
1936;DHT22;969;49.892;10.896;2023-07-16T02:22:37;27.80;49.10
1936;DHT22;969;49.892;10.896;2023-07-16T02:25:03;27.80;49.10
1936;DHT22;969;49.892;10.896;2023-07-16T02:27:29;27.70;49.10
1936;DHT22;969;49.892;10.896;2023-07-16T02:29:55;27.80;49.10
1936;DHT22;969;49.892;10.896;2023-07-16T02:32:20;27.80;49.10
1936;DHT22;969;49.892;10.896;2023-07-16T02:34:46;27.80;49.10
1936;DHT22;969;49.892;10.896;2023-07-16T02:37:12;27.80;49.10
1936;DHT22;969;49.892;10.896;2023-07-16T02:39:38;27.70;49.10
1936;DHT22;969;49.892;10.896;2023-07-16T02:42:04;27.80;49.10
1936;DHT22;969;49.892;10.896;2023-07-16T02:44:30;27.80;49.10
1936;DHT22;969;49.892;10.896;2023-07-16T02:46:55;27.70;49.10
1936;DHT22;969;49.892;10.896;2023-07-16T02:49:21;27.80;49.10
1936;DHT22;969;49.892;10.896;2023-07-16T02:51:47;27.80;49.10
1936;DHT22;969;49.892;10.896;2023-07-16T02:54:12;27.70;49.10
1936;DHT22;969;49.892;10.896;2023-07-16T02:56:38;27.80;49.20
1936;DHT22;969;49.892;10.896;2023-07-16T02:59:03;27.70;49.10
1936;DHT22;969;49.892;10.896;2023-07-16T03:01:29;27.70;49.10
1936;DHT22;969;49.892;10.896;2023-07-16T03:03:55;27.70;49.10
1936;DHT22;969;49.892;10.896;2023-07-16T03:06:20;27.80;49.20
1936;DHT22;969;49.892;10.896;2023-07-16T03:08:46;27.70;49.10
1936;DHT22;969;49.892;10.896;2023-07-16T03:11:12;27.80;49.20
1936;DHT22;969;49.892;10.896;2023-07-16T03:13:37;27.80;49.20
1936;DHT22;969;49.892;10.896;2023-07-16T03:16:03;27.80;49.20
1936;DHT22;969;49.892;10.896;2023-07-16T03:18:29;27.80;49.20
1936;DHT22;969;49.892;10.896;2023-07-16T03:20:56;27.80;49.20
1936;DHT22;969;49.892;10.896;2023-07-16T03:23:23;27.80;49.20
1936;DHT22;969;49.892;10.896;2023-07-16T03:25:48;27.80;49.20
1936;DHT22;969;49.892;10.896;2023-07-16T03:28:14;27.80;49.20
1936;DHT22;969;49.892;10.896;2023-07-16T03:30:40;27.70;49.10
1936;DHT22;969;49.892;10.896;2023-07-16T03:33:05;27.80;49.20
1936;DHT22;969;49.892;10.896;2023-07-16T03:35:31;27.80;49.20
1936;DHT22;969;49.892;10.896;2023-07-16T03:37:57;27.80;49.20
1936;DHT22;969;49.892;10.896;2023-07-16T03:40:26;27.80;49.20
1936;DHT22;969;49.892;10.896;2023-07-16T03:42:52;27.80;49.20
1936;DHT22;969;49.892;10.896;2023-07-16T03:45:18;27.70;49.10
1936;DHT22;969;49.892;10.896;2023-07-16T03:47:44;27.70;49.10
1936;DHT22;969;49.892;10.896;2023-07-16T03:50:09;27.80;49.20
1936;DHT22;969;49.892;10.896;2023-07-16T03:52:35;27.70;49.10
1936;DHT22;969;49.892;10.896;2023-07-16T03:55:01;27.70;49.10
1936;DHT22;969;49.892;10.896;2023-07-16T03:57:28;27.80;49.20
1936;DHT22;969;49.892;10.896;2023-07-16T03:59:54;27.80;49.20
1936;DHT22;969;49.892;10.896;2023-07-16T04:02:20;27.80;49.20
1936;DHT22;969;49.892;10.896;2023-07-16T04:04:45;27.80;49.20
1936;DHT22;969;49.892;10.896;2023-07-16T04:07:12;27.80;49.20
1936;DHT22;969;49.892;10.896;2023-07-16T04:09:38;27.80;49.20
1936;DHT22;969;49.892;10.896;2023-07-16T04:12:04;27.70;49.10
1936;DHT22;969;49.892;10.896;2023-07-16T04:14:30;27.80;49.50
1936;DHT22;969;49.892;10.896;2023-07-16T04:16:56;27.80;49.20
1936;DHT22;969;49.892;10.896;2023-07-16T04:19:21;27.80;49.20
1936;DHT22;969;49.892;10.896;2023-07-16T04:21:47;27.80;49.20
1936;DHT22;969;49.892;10.896;2023-07-16T04:24:12;27.80;49.20
1936;DHT22;969;49.892;10.896;2023-07-16T04:26:38;27.80;49.20
1936;DHT22;969;49.892;10.896;2023-07-16T04:29:04;27.80;49.20
1936;DHT22;969;49.892;10.896;2023-07-16T04:31:29;27.80;49.20
1936;DHT22;969;49.892;10.896;2023-07-16T04:33:55;27.80;49.20
1936;DHT22;969;49.892;10.896;2023-07-16T04:36:20;27.80;49.10
1936;DHT22;969;49.892;10.896;2023-07-16T04:38:46;27.80;49.10
1936;DHT22;969;49.892;10.896;2023-07-16T04:41:12;27.80;49.20
1936;DHT22;969;49.892;10.896;2023-07-16T04:43:38;27.80;49.20
1936;DHT22;969;49.892;10.896;2023-07-16T04:46:04;27.80;49.20
1936;DHT22;969;49.892;10.896;2023-07-16T04:48:30;27.80;49.20
1936;DHT22;969;49.892;10.896;2023-07-16T04:50:55;27.80;49.20
1936;DHT22;969;49.892;10.896;2023-07-16T04:53:22;27.80;49.20
1936;DHT22;969;49.892;10.896;2023-07-16T04:55:48;27.80;49.20
1936;DHT22;969;49.892;10.896;2023-07-16T04:58:14;27.80;49.10
1936;DHT22;969;49.892;10.896;2023-07-16T05:00:40;27.80;49.10
1936;DHT22;969;49.892;10.896;2023-07-16T05:03:05;27.80;49.10
1936;DHT22;969;49.892;10.896;2023-07-16T05:05:31;27.80;49.10
1936;DHT22;969;49.892;10.896;2023-07-16T05:07:57;27.80;49.10
1936;DHT22;969;49.892;10.896;2023-07-16T05:10:22;27.80;49.10
1936;DHT22;969;49.892;10.896;2023-07-16T05:12:48;27.80;49.20
1936;DHT22;969;49.892;10.896;2023-07-16T05:15:14;27.80;49.10
1936;DHT22;969;49.892;10.896;2023-07-16T05:17:40;27.90;49.20
1936;DHT22;969;49.892;10.896;2023-07-16T05:20:06;27.80;49.20
1936;DHT22;969;49.892;10.896;2023-07-16T05:22:32;27.80;49.20
1936;DHT22;969;49.892;10.896;2023-07-16T05:24:58;27.80;49.20
1936;DHT22;969;49.892;10.896;2023-07-16T05:27:23;27.90;49.30
1936;DHT22;969;49.892;10.896;2023-07-16T05:29:49;27.90;49.30
1936;DHT22;969;49.892;10.896;2023-07-16T05:32:14;27.80;49.30
1936;DHT22;969;49.892;10.896;2023-07-16T05:34:40;27.90;49.40
1936;DHT22;969;49.892;10.896;2023-07-16T05:37:06;27.90;49.40
1936;DHT22;969;49.892;10.896;2023-07-16T05:39:31;27.90;49.40
1936;DHT22;969;49.892;10.896;2023-07-16T05:41:57;27.90;49.40
1936;DHT22;969;49.892;10.896;2023-07-16T05:44:23;27.90;49.40
1936;DHT22;969;49.892;10.896;2023-07-16T05:46:48;27.90;49.40
1936;DHT22;969;49.892;10.896;2023-07-16T05:49:14;27.90;49.40
1936;DHT22;969;49.892;10.896;2023-07-16T05:51:39;27.80;49.40
1936;DHT22;969;49.892;10.896;2023-07-16T05:54:05;27.80;49.40
1936;DHT22;969;49.892;10.896;2023-07-16T05:56:31;27.90;49.50
1936;DHT22;969;49.892;10.896;2023-07-16T05:58:57;27.90;49.50
1936;DHT22;969;49.892;10.896;2023-07-16T06:01:23;27.90;49.50
1936;DHT22;969;49.892;10.896;2023-07-16T06:03:48;27.80;49.40
1936;DHT22;969;49.892;10.896;2023-07-16T06:06:14;27.90;49.50
1936;DHT22;969;49.892;10.896;2023-07-16T06:08:39;27.90;49.50
1936;DHT22;969;49.892;10.896;2023-07-16T06:11:05;27.80;49.40
1936;DHT22;969;49.892;10.896;2023-07-16T06:13:31;27.90;49.50
1936;DHT22;969;49.892;10.896;2023-07-16T06:15:57;27.90;49.50
1936;DHT22;969;49.892;10.896;2023-07-16T06:18:22;27.80;49.40
1936;DHT22;969;49.892;10.896;2023-07-16T06:20:48;27.80;49.40
1936;DHT22;969;49.892;10.896;2023-07-16T06:23:14;27.90;49.40
1936;DHT22;969;49.892;10.896;2023-07-16T06:25:42;27.90;49.50
1936;DHT22;969;49.892;10.896;2023-07-16T06:28:12;27.90;49.50
1936;DHT22;969;49.892;10.896;2023-07-16T06:30:37;27.90;49.40
1936;DHT22;969;49.892;10.896;2023-07-16T06:33:03;27.90;49.50
1936;DHT22;969;49.892;10.896;2023-07-16T06:35:29;27.90;49.50
1936;DHT22;969;49.892;10.896;2023-07-16T06:37:54;27.80;49.50
1936;DHT22;969;49.892;10.896;2023-07-16T06:40:20;27.90;49.60
1936;DHT22;969;49.892;10.896;2023-07-16T06:42:45;27.90;49.50
1936;DHT22;969;49.892;10.896;2023-07-16T06:45:11;27.90;49.50
1936;DHT22;969;49.892;10.896;2023-07-16T06:47:37;27.90;49.50
1936;DHT22;969;49.892;10.896;2023-07-16T06:50:03;27.80;49.50
1936;DHT22;969;49.892;10.896;2023-07-16T06:52:29;27.90;49.60
1936;DHT22;969;49.892;10.896;2023-07-16T06:54:56;27.90;49.60
1936;DHT22;969;49.892;10.896;2023-07-16T06:57:23;27.90;49.60
1936;DHT22;969;49.892;10.896;2023-07-16T06:59:49;27.90;49.60
1936;DHT22;969;49.892;10.896;2023-07-16T07:02:16;27.90;49.60
1936;DHT22;969;49.892;10.896;2023-07-16T07:04:41;27.90;49.60
1936;DHT22;969;49.892;10.896;2023-07-16T07:07:07;27.90;49.60
1936;DHT22;969;49.892;10.896;2023-07-16T07:09:33;27.90;49.60
1936;DHT22;969;49.892;10.896;2023-07-16T07:11:58;27.90;49.50
1936;DHT22;969;49.892;10.896;2023-07-16T07:14:24;27.90;49.60
1936;DHT22;969;49.892;10.896;2023-07-16T07:16:49;27.90;49.60
1936;DHT22;969;49.892;10.896;2023-07-16T07:19:15;27.90;49.60
1936;DHT22;969;49.892;10.896;2023-07-16T07:21:40;27.90;49.60
1936;DHT22;969;49.892;10.896;2023-07-16T07:24:06;27.90;49.60
1936;DHT22;969;49.892;10.896;2023-07-16T07:26:31;27.90;49.60
1936;DHT22;969;49.892;10.896;2023-07-16T07:28:57;27.90;49.60
1936;DHT22;969;49.892;10.896;2023-07-16T07:31:23;27.90;49.60
1936;DHT22;969;49.892;10.896;2023-07-16T07:33:48;27.90;49.60
1936;DHT22;969;49.892;10.896;2023-07-16T07:36:14;27.90;49.60
1936;DHT22;969;49.892;10.896;2023-07-16T07:38:39;27.90;49.60
1936;DHT22;969;49.892;10.896;2023-07-16T07:41:05;27.90;49.60
1936;DHT22;969;49.892;10.896;2023-07-16T07:43:31;27.90;49.60
1936;DHT22;969;49.892;10.896;2023-07-16T07:45:57;27.90;49.70
1936;DHT22;969;49.892;10.896;2023-07-16T07:48:22;27.90;49.70
1936;DHT22;969;49.892;10.896;2023-07-16T07:50:48;27.90;49.60
1936;DHT22;969;49.892;10.896;2023-07-16T07:53:14;27.90;49.60
1936;DHT22;969;49.892;10.896;2023-07-16T07:55:44;27.90;49.60
1936;DHT22;969;49.892;10.896;2023-07-16T07:58:10;27.90;49.60
1936;DHT22;969;49.892;10.896;2023-07-16T08:00:36;27.90;49.60
1936;DHT22;969;49.892;10.896;2023-07-16T08:03:02;27.90;49.60
1936;DHT22;969;49.892;10.896;2023-07-16T08:05:28;27.90;50.20
1936;DHT22;969;49.892;10.896;2023-07-16T08:07:53;27.90;49.70
1936;DHT22;969;49.892;10.896;2023-07-16T08:10:21;27.90;49.70
1936;DHT22;969;49.892;10.896;2023-07-16T08:12:46;27.90;49.70
1936;DHT22;969;49.892;10.896;2023-07-16T08:15:12;27.90;49.70
1936;DHT22;969;49.892;10.896;2023-07-16T08:17:41;28.00;49.70
1936;DHT22;969;49.892;10.896;2023-07-16T08:20:08;28.00;49.70
1936;DHT22;969;49.892;10.896;2023-07-16T08:22:34;27.90;49.60
1936;DHT22;969;49.892;10.896;2023-07-16T08:24:59;28.00;49.70
1936;DHT22;969;49.892;10.896;2023-07-16T08:27:25;28.00;49.70
1936;DHT22;969;49.892;10.896;2023-07-16T08:29:50;28.00;49.70
1936;DHT22;969;49.892;10.896;2023-07-16T08:32:16;28.00;49.70
1936;DHT22;969;49.892;10.896;2023-07-16T08:34:41;27.90;50.20
1936;DHT22;969;49.892;10.896;2023-07-16T08:37:07;27.90;49.60
1936;DHT22;969;49.892;10.896;2023-07-16T08:39:33;27.90;49.60
1936;DHT22;969;49.892;10.896;2023-07-16T08:41:59;27.90;49.60
1936;DHT22;969;49.892;10.896;2023-07-16T08:44:24;28.00;49.80
1936;DHT22;969;49.892;10.896;2023-07-16T08:46:51;28.00;49.80
1936;DHT22;969;49.892;10.896;2023-07-16T08:49:17;27.90;49.70
1936;DHT22;969;49.892;10.896;2023-07-16T08:51:45;28.00;49.70
1936;DHT22;969;49.892;10.896;2023-07-16T08:54:12;28.00;49.80
1936;DHT22;969;49.892;10.896;2023-07-16T08:56:41;28.00;49.70
1936;DHT22;969;49.892;10.896;2023-07-16T08:59:07;28.00;49.80
1936;DHT22;969;49.892;10.896;2023-07-16T09:01:33;28.00;49.70
1936;DHT22;969;49.892;10.896;2023-07-16T09:03:59;28.00;49.60
1936;DHT22;969;49.892;10.896;2023-07-16T09:06:24;28.00;49.70
1936;DHT22;969;49.892;10.896;2023-07-16T09:08:50;28.00;49.70
1936;DHT22;969;49.892;10.896;2023-07-16T09:11:16;28.00;49.70
1936;DHT22;969;49.892;10.896;2023-07-16T09:13:46;28.00;49.70
1936;DHT22;969;49.892;10.896;2023-07-16T09:16:12;28.00;49.70
1936;DHT22;969;49.892;10.896;2023-07-16T09:18:40;28.00;49.60
1936;DHT22;969;49.892;10.896;2023-07-16T09:21:06;28.00;49.70
1936;DHT22;969;49.892;10.896;2023-07-16T09:23:32;28.00;49.70
1936;DHT22;969;49.892;10.896;2023-07-16T09:25:58;28.00;49.70
1936;DHT22;969;49.892;10.896;2023-07-16T09:28:24;28.00;49.70
1936;DHT22;969;49.892;10.896;2023-07-16T09:30:51;28.00;49.70
1936;DHT22;969;49.892;10.896;2023-07-16T09:33:19;28.00;49.70
1936;DHT22;969;49.892;10.896;2023-07-16T09:35:48;28.00;49.70
1936;DHT22;969;49.892;10.896;2023-07-16T09:38:14;28.00;49.70
1936;DHT22;969;49.892;10.896;2023-07-16T09:40:40;28.00;49.70
1936;DHT22;969;49.892;10.896;2023-07-16T09:43:08;28.00;49.70
1936;DHT22;969;49.892;10.896;2023-07-16T09:45:34;28.00;49.70
1936;DHT22;969;49.892;10.896;2023-07-16T09:48:00;28.00;49.70
1936;DHT22;969;49.892;10.896;2023-07-16T09:50:32;28.00;49.80
1936;DHT22;969;49.892;10.896;2023-07-16T09:52:59;28.00;49.80
1936;DHT22;969;49.892;10.896;2023-07-16T09:55:25;28.00;49.70
1936;DHT22;969;49.892;10.896;2023-07-16T09:57:57;28.00;49.70
1936;DHT22;969;49.892;10.896;2023-07-16T10:00:24;28.00;49.70
1936;DHT22;969;49.892;10.896;2023-07-16T10:02:51;28.00;49.70
1936;DHT22;969;49.892;10.896;2023-07-16T10:05:25;28.00;49.70
1936;DHT22;969;49.892;10.896;2023-07-16T10:08:00;28.00;49.80
1936;DHT22;969;49.892;10.896;2023-07-16T10:10:40;28.00;49.70
1936;DHT22;969;49.892;10.896;2023-07-16T10:13:07;28.00;49.80
1936;DHT22;969;49.892;10.896;2023-07-16T10:15:33;28.00;49.70
1936;DHT22;969;49.892;10.896;2023-07-16T10:17:59;28.00;49.80
1936;DHT22;969;49.892;10.896;2023-07-16T10:20:35;28.00;49.80
1936;DHT22;969;49.892;10.896;2023-07-16T10:23:12;28.00;50.30
1936;DHT22;969;49.892;10.896;2023-07-16T10:25:57;28.00;49.80
1936;DHT22;969;49.892;10.896;2023-07-16T10:28:22;28.00;49.80
1936;DHT22;969;49.892;10.896;2023-07-16T10:30:49;28.00;49.70
1936;DHT22;969;49.892;10.896;2023-07-16T10:33:15;28.00;49.70
1936;DHT22;969;49.892;10.896;2023-07-16T10:35:47;28.00;49.70
1936;DHT22;969;49.892;10.896;2023-07-16T10:38:12;28.00;49.80
1936;DHT22;969;49.892;10.896;2023-07-16T10:40:45;28.00;49.80
1936;DHT22;969;49.892;10.896;2023-07-16T10:43:12;28.00;49.80
1936;DHT22;969;49.892;10.896;2023-07-16T10:45:37;28.00;49.80
1936;DHT22;969;49.892;10.896;2023-07-16T10:48:04;28.00;49.80
1936;DHT22;969;49.892;10.896;2023-07-16T10:50:32;28.00;49.80
1936;DHT22;969;49.892;10.896;2023-07-16T10:52:59;28.00;49.80
1936;DHT22;969;49.892;10.896;2023-07-16T10:55:27;28.00;49.80
1936;DHT22;969;49.892;10.896;2023-07-16T10:57:53;28.00;49.80
1936;DHT22;969;49.892;10.896;2023-07-16T11:00:20;28.00;49.80
1936;DHT22;969;49.892;10.896;2023-07-16T11:02:46;28.00;49.80
1936;DHT22;969;49.892;10.896;2023-07-16T11:05:16;28.00;49.30
1936;DHT22;969;49.892;10.896;2023-07-16T11:07:46;28.00;48.80
1936;DHT22;969;49.892;10.896;2023-07-16T11:10:14;28.00;48.60
1936;DHT22;969;49.892;10.896;2023-07-16T11:12:41;28.00;48.40
1936;DHT22;969;49.892;10.896;2023-07-16T11:15:08;28.00;48.30
1936;DHT22;969;49.892;10.896;2023-07-16T11:17:34;27.90;48.10
1936;DHT22;969;49.892;10.896;2023-07-16T11:20:02;27.90;48.00
1936;DHT22;969;49.892;10.896;2023-07-16T11:22:29;27.90;48.00
1936;DHT22;969;49.892;10.896;2023-07-16T11:24:55;27.90;47.90
1936;DHT22;969;49.892;10.896;2023-07-16T11:27:27;27.90;48.00
1936;DHT22;969;49.892;10.896;2023-07-16T11:29:57;27.90;48.00
1936;DHT22;969;49.892;10.896;2023-07-16T11:34:53;27.80;47.90
1936;DHT22;969;49.892;10.896;2023-07-16T11:37:19;27.80;47.90
1936;DHT22;969;49.892;10.896;2023-07-16T11:39:46;27.80;48.00
1936;DHT22;969;49.892;10.896;2023-07-16T11:42:12;27.80;48.10
1936;DHT22;969;49.892;10.896;2023-07-16T11:44:38;27.80;48.00
1936;DHT22;969;49.892;10.896;2023-07-16T11:47:03;27.80;47.90
1936;DHT22;969;49.892;10.896;2023-07-16T11:49:29;27.80;47.90
1936;DHT22;969;49.892;10.896;2023-07-16T11:51:56;27.80;47.90
1936;DHT22;969;49.892;10.896;2023-07-16T11:54:22;27.80;47.90
1936;DHT22;969;49.892;10.896;2023-07-16T11:56:47;27.80;48.00
1936;DHT22;969;49.892;10.896;2023-07-16T11:59:13;27.80;48.00
1936;DHT22;969;49.892;10.896;2023-07-16T12:01:39;27.80;48.00
1936;DHT22;969;49.892;10.896;2023-07-16T12:04:04;27.80;47.90
1936;DHT22;969;49.892;10.896;2023-07-16T12:06:30;27.70;48.10
1936;DHT22;969;49.892;10.896;2023-07-16T12:08:56;27.80;48.20
1936;DHT22;969;49.892;10.896;2023-07-16T12:11:21;27.80;48.30
1936;DHT22;969;49.892;10.896;2023-07-16T12:13:47;27.70;48.50
1936;DHT22;969;49.892;10.896;2023-07-16T12:16:13;27.70;48.20
1936;DHT22;969;49.892;10.896;2023-07-16T12:18:38;27.80;48.30
1936;DHT22;969;49.892;10.896;2023-07-16T12:21:04;27.70;48.20
1936;DHT22;969;49.892;10.896;2023-07-16T12:23:31;27.70;48.20
1936;DHT22;969;49.892;10.896;2023-07-16T12:25:57;27.80;48.40
1936;DHT22;969;49.892;10.896;2023-07-16T12:28:22;27.70;48.30
1936;DHT22;969;49.892;10.896;2023-07-16T12:30:48;27.80;48.40
1936;DHT22;969;49.892;10.896;2023-07-16T12:33:13;27.80;48.40
1936;DHT22;969;49.892;10.896;2023-07-16T12:35:39;27.80;48.50
1936;DHT22;969;49.892;10.896;2023-07-16T12:38:05;27.70;48.50
1936;DHT22;969;49.892;10.896;2023-07-16T12:40:30;27.80;48.60
1936;DHT22;969;49.892;10.896;2023-07-16T12:42:56;27.70;48.50
1936;DHT22;969;49.892;10.896;2023-07-16T12:45:22;27.80;48.60
1936;DHT22;969;49.892;10.896;2023-07-16T12:47:47;27.80;48.70
1936;DHT22;969;49.892;10.896;2023-07-16T12:50:13;27.70;48.60
1936;DHT22;969;49.892;10.896;2023-07-16T12:52:38;27.80;48.70
1936;DHT22;969;49.892;10.896;2023-07-16T12:55:04;27.80;48.70
1936;DHT22;969;49.892;10.896;2023-07-16T12:57:30;27.80;48.70
1936;DHT22;969;49.892;10.896;2023-07-16T12:59:55;27.80;48.80
1936;DHT22;969;49.892;10.896;2023-07-16T13:02:21;27.80;48.80
1936;DHT22;969;49.892;10.896;2023-07-16T13:04:46;27.80;48.80
1936;DHT22;969;49.892;10.896;2023-07-16T13:07:12;27.80;48.80
1936;DHT22;969;49.892;10.896;2023-07-16T13:09:38;27.70;48.80
1936;DHT22;969;49.892;10.896;2023-07-16T13:12:04;27.80;48.90
1936;DHT22;969;49.892;10.896;2023-07-16T13:14:29;27.80;48.90
1936;DHT22;969;49.892;10.896;2023-07-16T13:16:55;27.80;48.90
1936;DHT22;969;49.892;10.896;2023-07-16T13:19:21;27.80;48.90
1936;DHT22;969;49.892;10.896;2023-07-16T13:21:46;27.80;48.90
1936;DHT22;969;49.892;10.896;2023-07-16T13:24:12;27.80;48.90
1936;DHT22;969;49.892;10.896;2023-07-16T13:26:38;27.70;48.90
1936;DHT22;969;49.892;10.896;2023-07-16T13:29:04;27.80;48.90
1936;DHT22;969;49.892;10.896;2023-07-16T13:31:30;27.80;48.90
1936;DHT22;969;49.892;10.896;2023-07-16T13:33:55;27.80;48.90
1936;DHT22;969;49.892;10.896;2023-07-16T13:36:21;27.80;49.00
1936;DHT22;969;49.892;10.896;2023-07-16T13:38:47;27.80;49.00
1936;DHT22;969;49.892;10.896;2023-07-16T13:41:12;27.80;49.00
1936;DHT22;969;49.892;10.896;2023-07-16T13:43:38;27.80;49.00
1936;DHT22;969;49.892;10.896;2023-07-16T13:46:03;27.80;49.00
1936;DHT22;969;49.892;10.896;2023-07-16T13:48:29;27.70;48.90
1936;DHT22;969;49.892;10.896;2023-07-16T13:50:54;27.80;49.00
1936;DHT22;969;49.892;10.896;2023-07-16T13:53:20;27.80;49.00
1936;DHT22;969;49.892;10.896;2023-07-16T13:55:45;27.80;49.00
1936;DHT22;969;49.892;10.896;2023-07-16T13:58:11;27.80;49.00
1936;DHT22;969;49.892;10.896;2023-07-16T14:00:37;27.70;49.00
1936;DHT22;969;49.892;10.896;2023-07-16T14:03:02;27.80;49.10
1936;DHT22;969;49.892;10.896;2023-07-16T14:05:28;27.80;49.10
1936;DHT22;969;49.892;10.896;2023-07-16T14:07:54;27.80;49.10
1936;DHT22;969;49.892;10.896;2023-07-16T14:10:19;27.80;49.10
1936;DHT22;969;49.892;10.896;2023-07-16T14:12:45;27.80;49.10
1936;DHT22;969;49.892;10.896;2023-07-16T14:15:11;27.80;49.10
1936;DHT22;969;49.892;10.896;2023-07-16T14:17:36;27.80;49.10
1936;DHT22;969;49.892;10.896;2023-07-16T14:20:02;27.80;49.10
1936;DHT22;969;49.892;10.896;2023-07-16T14:22:29;27.80;49.60
1936;DHT22;969;49.892;10.896;2023-07-16T14:24:54;27.70;49.10
1936;DHT22;969;49.892;10.896;2023-07-16T14:27:20;27.80;49.20
1936;DHT22;969;49.892;10.896;2023-07-16T14:29:46;27.80;49.10
1936;DHT22;969;49.892;10.896;2023-07-16T14:32:12;27.80;49.10
1936;DHT22;969;49.892;10.896;2023-07-16T14:34:38;27.80;49.20
1936;DHT22;969;49.892;10.896;2023-07-16T14:37:04;27.80;49.20
1936;DHT22;969;49.892;10.896;2023-07-16T14:39:29;27.80;49.20
1936;DHT22;969;49.892;10.896;2023-07-16T14:41:55;27.80;49.20
1936;DHT22;969;49.892;10.896;2023-07-16T14:44:21;27.80;49.20
1936;DHT22;969;49.892;10.896;2023-07-16T14:46:46;27.80;49.20
1936;DHT22;969;49.892;10.896;2023-07-16T14:49:12;27.80;49.20
1936;DHT22;969;49.892;10.896;2023-07-16T14:51:37;27.80;49.20
1936;DHT22;969;49.892;10.896;2023-07-16T14:54:05;27.70;49.10
1936;DHT22;969;49.892;10.896;2023-07-16T14:56:32;27.80;49.20
1936;DHT22;969;49.892;10.896;2023-07-16T14:58:57;27.80;49.20
1936;DHT22;969;49.892;10.896;2023-07-16T15:01:23;27.70;49.10
1936;DHT22;969;49.892;10.896;2023-07-16T15:03:49;27.70;49.10
1936;DHT22;969;49.892;10.896;2023-07-16T15:06:14;27.80;49.20
1936;DHT22;969;49.892;10.896;2023-07-16T15:08:40;27.80;49.80
1936;DHT22;969;49.892;10.896;2023-07-16T15:11:06;27.80;49.20
1936;DHT22;969;49.892;10.896;2023-07-16T15:13:32;27.80;49.20
1936;DHT22;969;49.892;10.896;2023-07-16T15:15:58;27.80;49.20
1936;DHT22;969;49.892;10.896;2023-07-16T15:18:24;27.80;49.20
1936;DHT22;969;49.892;10.896;2023-07-16T15:20:59;27.80;49.20
1936;DHT22;969;49.892;10.896;2023-07-16T15:23:26;27.80;49.20
1936;DHT22;969;49.892;10.896;2023-07-16T15:25:52;27.80;49.80
1936;DHT22;969;49.892;10.896;2023-07-16T15:28:18;27.80;49.20
1936;DHT22;969;49.892;10.896;2023-07-16T15:30:43;27.80;49.20
1936;DHT22;969;49.892;10.896;2023-07-16T15:33:09;27.80;49.20
1936;DHT22;969;49.892;10.896;2023-07-16T15:35:38;27.80;49.20
1936;DHT22;969;49.892;10.896;2023-07-16T15:38:03;27.80;49.20
1936;DHT22;969;49.892;10.896;2023-07-16T15:40:32;27.80;49.20
1936;DHT22;969;49.892;10.896;2023-07-16T15:42:58;27.80;49.20
1936;DHT22;969;49.892;10.896;2023-07-16T15:45:24;27.80;49.20
1936;DHT22;969;49.892;10.896;2023-07-16T15:47:50;27.80;49.20
1936;DHT22;969;49.892;10.896;2023-07-16T15:50:22;27.80;49.20
1936;DHT22;969;49.892;10.896;2023-07-16T15:52:48;27.80;49.20
1936;DHT22;969;49.892;10.896;2023-07-16T15:55:14;27.80;49.20
1936;DHT22;969;49.892;10.896;2023-07-16T15:57:39;27.80;49.20
1936;DHT22;969;49.892;10.896;2023-07-16T16:00:14;27.80;49.30
1936;DHT22;969;49.892;10.896;2023-07-16T16:02:49;27.80;49.20